x

Virginia Beach 64 Nm East Of Virginia Beach, Va (44014) Wave Buoy

9:50 - Wed 26th Nov 2014 All times are EST. -5 hours from GMT.

  • Sig Wave height 8.2ft
  • Swell Direction
  • Peak Period 8s
  • Average Period 6s
  • Wind
    25mph, 31mph gusts
  • Sea Temp 67°f
  • Ar Temp 73°f
  • Sea Pressure 1005mb
  • Virginia Beach 64 Nm East Of Virginia Beach, Va
  • Virginia Beach 64 Nm East Of Virginia Beach, Va

More Historic Weather Station data

Upgrade to MSW Pro to gain access to the past 30 days of data for over 8000 Wavebouys and Weather Stations around the globe.

Join Pro

Comparision Forecast

View Surf forecast
   
Qua 11/26 9:50 8ft 8s 6s 25 31 mph 1005mb 67f 73f
8:50 8ft 8s 6s 18 22 mph 1006.6mb 68f 70f
7:50 7.5ft 7s 6s 20 25 mph 1008.3mb 67f 64f
6:50 8ft 6s 6s 29 34 mph 1009.9mb 67f 62f
5:50 7ft 6s 5s 27 34 mph 1010.9mb 66f 61f
4:50 6.5ft 6s 5s 29 36 mph 1011.6mb 65f 60f
3:50 6ft 9s 5s 31 38 mph 1012.4mb 64f 60f
2:50 5.5ft 8s 5s 27 31 mph 1014.7mb 64f 60f
1:50 5ft 8s 6s 20 25 mph 1015.9mb 64f 61f
12:50 5ft 8s 6s 18 20 mph 1016.9mb 65f 61f
Ter 11/25 11:50 5ft 8s 6s 11 13 mph 1017.9mb 65f 62f
10:50 4.5ft 9s 6s 9 11 mph 1018.3mb 65f 62f
9:50 5ft 8s 7s 9 11 mph 1019.5mb 64f 62f
8:50 4.5ft 9s 7s 11 13 mph 1019mb 64f 61f
7:50 3.5ft 8s 7s 16 20 mph 1018.3mb 64f 61f
6:50 4ft 8s 7s 11 16 mph 1018.2mb 64f 61f
5:50 4ft 8s 7s 7 9 mph 1017.6mb 64f 62f
4:50 4.5ft 8s 7s 9
mph
1017.4mb 64f 63f
3:50 4.5ft 8s 7s 4 9 mph 1016.7mb 64f 63f
2:50 4.5ft 9s 7s 9 11 mph 1016.3mb 64f 63f
1:50 4.5ft 8s 7s 11
mph
1015.8mb 64f 63f
12:50 4.5ft 9s 7s 11 13 mph 1016.3mb 64f 63f
11:50 5ft 10s 7s 13 18 mph 1016.7mb 64f 64f
10:50 5ft 9s 7s 11 13 mph 1016.8mb 64f 65f
9:50 5ft 9s 7s 9 11 mph 1016.7mb 64f 66f
8:50 5.5ft 8s 7s 11 16 mph 1017.2mb 64f 67f
7:50 6ft 9s 7s 11 13 mph 1016.7mb 64f 66f
6:50 6ft 9s 6s 9
mph
1014.5mb 63f 66f
5:50 6ft 9s 6s 11 13 mph 1014.9mb 63f 66f
4:50 6.5ft 9s 6s 16 18 mph 1014.5mb 63f 66f
3:50 7ft 9s 7s 16 18 mph 1013.8mb 63f 67f
2:50 7ft 9s 6s 16 20 mph 1013.8mb 63f 67f
1:50 7.5ft 10s 7s 16 20 mph 1013.3mb 63f 67f
12:50 7.5ft 9s 6s 13 16 mph 1012.6mb 63f 67f
Seg 11/24 11:50 8ft 9s 6s 18 22 mph 1012mb 63f 68f
10:50 8ft 9s 6s 20 25 mph 1012.6mb 63f 68f
9:50 7ft 9s 6s 25 29 mph 1011.5mb 63f 69f
8:50 7.5ft 9s 6s 18 20 mph 1011.8mb 63f 69f
7:50 7.5ft 9s 6s 20 25 mph 1011.1mb 63f 69f
6:50 8ft 9s 6s 20 27 mph 1011mb 63f 68f
5:50 7ft 9s 6s 20 22 mph 1010.8mb 62f 67f
4:50 8.5ft 10s 7s 20 22 mph 1010.4mb 62f 67f
3:50 8.5ft 9s 6s 18 22 mph 1010mb 62f 67f
2:50 9.5ft 10s 7s 22 25 mph 1009.1mb 62f 67f
1:50 8.5ft 10s 7s 20 22 mph 1009.7mb 63f 67f
12:50 10ft 10s 7s 18 20 mph 1010.5mb 63f 67f
11:50 11.5ft 10s 7s 22 27 mph 1010.2mb 63f 67f
10:50 13ft 10s 8s 27 34 mph 1011.1mb 64f 66f
9:50 12.5ft 11s 8s 20 22 mph 1011mb 65f 68f
8:50 14ft 11s 8s 22 25 mph 1010.4mb 64f 68f
7:50 13ft 10s 7s 25 31 mph 1009.9mb 64f 69f
6:50 13ft 10s 7s 25 29 mph 1009.6mb 64f 69f
5:50 12ft 9s 7s 27 31 mph 1008.9mb 63f 68f
4:50 11ft 9s 7s 27 31 mph 1009.3mb 61f 67f
3:50 12.5ft 9s 7s 27 31 mph 1009.3mb 61f 67f
2:50 12ft 9s 7s 27 34 mph 1010.7mb 61f 66f
1:50 11ft 8s 6s 25 29 mph 1011.3mb 62f 67f
12:50 10ft 8s 6s 27 34 mph 1011.5mb 62f 67f
Dom 11/23 11:50 9ft 7s 6s 25 31 mph 1012.8mb 62f 67f
10:50 7.5ft 7s 6s 29 36 mph 1013.8mb 62f 68f
9:50 7ft 6s 5s 25 29 mph 1015.2mb 62f 67f
8:50 5ft 6s 5s 18 20 mph 1016.2mb 64f 67f
7:50 3.5ft 5s 5s 18 20 mph 1017.2mb 64f 66f
6:50 3ft 5s 4s 16 18 mph 1018.2mb 64f 66f
5:50 2.5ft 5s 4s 13 16 mph 1019.6mb 64f 66f
4:50 1.6ft 8s 4s 16 18 mph 1020mb 65f 66f
3:50 1.6ft 10s 5s 11 13 mph 1020.9mb 65f 65f
2:50 1.6ft 10s 5s 7 9 mph 1020.6mb 65f 65f
1:50 1.6ft 9s 5s 7 9 mph 1021.3mb 65f 65f
12:50 1.6ft 8s 5s 9 11 mph 1022.3mb 65f 65f
11:50 1.6ft 8s 5s 13 16 mph 1023.4mb 64f 64f
10:50 2ft 8s  -  9 11 mph 1024.7mb 65f 65f
9:50 2ft 8s 4s 11 16 mph 1024.6mb 64f 64f
8:50 2ft 9s 4s 13 18 mph 1025.3mb 64f 64f
7:50 2ft 9s 4s 16 18 mph 1025.7mb 62f 64f
6:50 2ft 8s 4s 16 18 mph 1025.5mb 61f 63f
5:50 1.6ft 8s 4s 13 16 mph 1025.6mb 61f 62f
4:50 1.6ft 8s 4s 9
mph
1025.5mb 60f 61f
3:50 2ft 8s 4s 9 11 mph 1025.9mb 61f 60f
2:50 1.6ft 9s 4s 9 11 mph 1026mb 61f 60f
1:50 2ft 9s 4s 11 13 mph 1026.2mb 61f 60f
12:50 2ft 9s 4s 11 13 mph 1026.5mb 61f 58f
Sáb 11/22 11:50 2ft 3s 4s 13 16 mph 1027.6mb 61f 57f
10:50 2ft 8s 4s 16 18 mph 1027.8mb 60f 57f
9:50 2ft 8s 4s 16 18 mph 1028mb 60f 56f
8:50 2ft 3s 4s 16 18 mph 1027.8mb 60f 56f
7:50 2ft 8s 4s 16 18 mph 1028.4mb 60f 55f
6:50 2ft 8s 4s 16 18 mph 1029.1mb 60f 54f
5:50 2ft 8s 4s 16 18 mph 1029.1mb 60f 53f
4:50 2ft 6s 5s 13 18 mph 1029.6mb 60f 52f